createdAt,value
2018-09-21T00:00:51.886Z,28.00
2018-09-21T00:03:21.192Z,28.00
2018-09-21T00:05:50.485Z,28.00
2018-09-21T00:08:19.730Z,28.00
2018-09-21T00:10:49.105Z,28.00
2018-09-21T00:13:18.364Z,27.90
2018-09-21T00:15:47.605Z,27.90
2018-09-21T00:18:16.856Z,27.90
2018-09-21T00:20:46.233Z,27.80
2018-09-21T00:23:15.468Z,27.80
2018-09-21T00:25:44.754Z,27.80
2018-09-21T00:28:14.022Z,27.80
2018-09-21T00:30:43.349Z,27.80
2018-09-21T00:33:12.629Z,27.80
2018-09-21T00:35:41.997Z,27.70
2018-09-21T00:38:11.268Z,27.70
2018-09-21T00:40:40.652Z,27.70
2018-09-21T00:43:09.991Z,27.70
2018-09-21T00:45:39.265Z,27.70
2018-09-21T00:48:08.518Z,27.70
2018-09-21T00:50:37.781Z,27.70
2018-09-21T00:53:07.193Z,27.70
2018-09-21T00:55:36.806Z,27.70
2018-09-21T00:58:06.186Z,27.80
2018-09-21T01:00:35.547Z,27.70
2018-09-21T01:03:04.912Z,27.70
2018-09-21T01:05:34.248Z,27.70
2018-09-21T01:08:03.553Z,27.70
2018-09-21T01:10:32.821Z,27.70
2018-09-21T01:13:02.200Z,27.70
2018-09-21T01:15:31.500Z,27.80
2018-09-21T01:18:00.725Z,27.80
2018-09-21T01:20:30.019Z,27.80
2018-09-21T01:22:59.384Z,27.80
2018-09-21T01:25:29.714Z,27.80
2018-09-21T01:27:59.600Z,27.80
2018-09-21T01:30:29.405Z,27.80
2018-09-21T01:32:59.633Z,27.80
2018-09-21T01:35:29.240Z,27.80
2018-09-21T01:37:59.100Z,27.80
2018-09-21T01:40:28.571Z,27.80
2018-09-21T01:42:57.980Z,27.80
2018-09-21T01:45:27.721Z,27.80
2018-09-21T01:47:56.979Z,27.80
2018-09-21T01:50:26.337Z,27.70
2018-09-21T01:52:55.628Z,27.70
2018-09-21T01:55:25.450Z,27.70
2018-09-21T01:57:54.713Z,27.70
2018-09-21T02:00:23.976Z,27.70
2018-09-21T02:02:53.300Z,27.70
2018-09-21T02:05:22.640Z,27.70
2018-09-21T02:07:51.933Z,27.70
2018-09-21T02:10:21.201Z,27.70
2018-09-21T02:12:50.477Z,27.70
2018-09-21T02:15:19.836Z,27.70
2018-09-21T02:17:49.138Z,27.70
2018-09-21T02:20:18.447Z,27.70
2018-09-21T02:22:47.745Z,27.70
2018-09-21T02:25:17.028Z,27.70
2018-09-21T02:27:46.487Z,27.60
2018-09-21T02:30:15.805Z,27.70
2018-09-21T02:32:45.058Z,27.60
2018-09-21T02:35:14.377Z,27.60
2018-09-21T02:37:43.787Z,27.70
2018-09-21T02:40:13.185Z,27.60
2018-09-21T02:42:42.440Z,27.60
2018-09-21T02:45:11.681Z,27.60
2018-09-21T02:47:41.054Z,27.60
2018-09-21T02:50:10.372Z,27.60
2018-09-21T02:52:39.668Z,27.60
2018-09-21T02:55:08.999Z,27.50
2018-09-21T02:57:38.321Z,27.50
2018-09-21T03:00:08.564Z,27.50
2018-09-21T03:02:37.920Z,27.50
2018-09-21T03:05:07.313Z,27.50
2018-09-21T03:07:36.575Z,27.50
2018-09-21T03:10:05.948Z,27.50
2018-09-21T03:12:35.194Z,27.50
2018-09-21T03:15:04.510Z,27.50
2018-09-21T03:17:33.762Z,27.40
2018-09-21T03:20:03.119Z,27.40
2018-09-21T03:22:32.430Z,27.40
2018-09-21T03:25:01.681Z,27.40
2018-09-21T03:27:30.984Z,27.40
2018-09-21T03:30:00.369Z,27.40
2018-09-21T03:32:29.693Z,27.40
2018-09-21T03:34:59.021Z,27.40
2018-09-21T03:37:28.271Z,27.40
2018-09-21T03:39:57.504Z,27.40
2018-09-21T03:42:26.842Z,27.40
2018-09-21T03:44:56.126Z,27.40
2018-09-21T03:47:25.432Z,27.40
2018-09-21T03:49:54.689Z,27.40
2018-09-21T03:52:23.968Z,27.30
2018-09-21T03:54:53.315Z,27.30
2018-09-21T03:57:22.575Z,27.30
2018-09-21T03:59:51.836Z,27.30
2018-09-21T04:02:21.400Z,27.30
2018-09-21T04:04:50.755Z,27.30
2018-09-21T04:07:20.012Z,27.30
2018-09-21T04:09:49.313Z,27.30
2018-09-21T04:12:18.569Z,27.30
2018-09-21T04:14:47.938Z,27.30
2018-09-21T04:17:17.267Z,27.30
2018-09-21T04:19:46.495Z,27.20
2018-09-21T04:22:15.893Z,27.30
2018-09-21T04:24:45.248Z,27.20
2018-09-21T04:27:14.579Z,27.20
2018-09-21T04:29:43.921Z,27.20
2018-09-21T04:32:13.169Z,27.20
2018-09-21T04:34:42.537Z,27.20
2018-09-21T04:37:11.924Z,27.20
2018-09-21T04:39:41.220Z,27.20
2018-09-21T04:42:10.516Z,27.20
2018-09-21T04:44:39.936Z,27.20
2018-09-21T04:47:09.417Z,27.20
2018-09-21T04:49:39.369Z,27.20
2018-09-21T04:52:09.713Z,27.20
2018-09-21T04:54:39.844Z,27.20
2018-09-21T04:57:09.962Z,27.20
2018-09-21T04:59:40.197Z,27.20
2018-09-21T05:02:09.828Z,27.10
2018-09-21T05:04:40.170Z,27.10
2018-09-21T05:07:10.556Z,27.10
2018-09-21T05:09:40.264Z,27.20
2018-09-21T05:12:09.574Z,27.20
2018-09-21T05:14:39.058Z,27.10
2018-09-21T05:17:08.736Z,27.20
2018-09-21T05:19:38.270Z,27.10
2018-09-21T05:22:07.911Z,27.10
2018-09-21T05:24:37.165Z,27.10
2018-09-21T05:27:06.573Z,27.10
2018-09-21T05:29:35.919Z,27.10
2018-09-21T05:32:05.217Z,27.10
2018-09-21T05:34:34.620Z,27.10
2018-09-21T05:37:03.895Z,27.10
2018-09-21T05:39:33.306Z,27.10
2018-09-21T05:42:02.663Z,27.10
2018-09-21T05:44:31.928Z,27.10
2018-09-21T05:47:01.342Z,27.10
2018-09-21T05:49:30.629Z,27.00
2018-09-21T05:51:59.874Z,27.10
2018-09-21T05:54:29.311Z,27.00
2018-09-21T05:56:58.613Z,27.10
2018-09-21T05:59:27.912Z,27.00
2018-09-21T06:01:57.227Z,27.10
2018-09-21T06:04:26.577Z,27.00
2018-09-21T06:06:56.097Z,27.00
2018-09-21T06:09:25.377Z,27.00
2018-09-21T06:11:54.733Z,27.00
2018-09-21T06:14:24.235Z,27.00
2018-09-21T06:16:53.540Z,26.90
2018-09-21T06:19:22.821Z,27.00
2018-09-21T06:21:52.200Z,27.00
2018-09-21T06:24:21.550Z,27.00
2018-09-21T06:26:50.908Z,27.00
2018-09-21T06:29:20.276Z,27.00
2018-09-21T06:31:49.627Z,27.00
2018-09-21T06:34:18.892Z,27.00
2018-09-21T06:36:51.827Z,27.00
2018-09-21T06:39:25.779Z,27.00
2018-09-21T06:41:55.024Z,27.00
2018-09-21T06:44:24.463Z,27.00
2018-09-21T06:46:53.793Z,27.00
2018-09-21T06:49:23.121Z,27.00
2018-09-21T06:51:52.435Z,27.00
2018-09-21T06:54:21.756Z,27.00
2018-09-21T06:56:51.061Z,27.10
2018-09-21T06:59:20.361Z,27.10
2018-09-21T07:01:49.676Z,27.10
2018-09-21T07:04:19.018Z,27.10
2018-09-21T07:06:48.361Z,27.10
2018-09-21T07:09:17.622Z,27.10
2018-09-21T07:11:47.904Z,27.10
2018-09-21T07:14:17.265Z,27.10
2018-09-21T07:16:46.621Z,27.10
2018-09-21T07:19:16.054Z,27.10
2018-09-21T07:21:45.731Z,27.10
2018-09-21T07:24:15.357Z,27.20
2018-09-21T07:26:45.460Z,27.10
2018-09-21T07:29:14.830Z,27.10
2018-09-21T07:31:45.865Z,27.20
2018-09-21T07:34:15.400Z,27.20
2018-09-21T07:36:45.474Z,27.10
2018-09-21T07:39:14.858Z,27.20
2018-09-21T07:41:44.166Z,27.20
2018-09-21T07:44:13.436Z,27.30
2018-09-21T07:46:42.753Z,27.30
2018-09-21T07:49:11.966Z,27.40
2018-09-21T07:51:41.181Z,27.30
2018-09-21T07:54:10.555Z,27.40
2018-09-21T07:56:39.798Z,27.40
2018-09-21T07:59:09.095Z,27.40
2018-09-21T08:01:38.348Z,27.50
2018-09-21T08:04:07.699Z,27.60
2018-09-21T08:06:36.960Z,27.60
2018-09-21T08:09:08.395Z,27.70
2018-09-21T08:11:37.890Z,27.80
2018-09-21T08:14:07.951Z,27.80
2018-09-21T08:16:38.233Z,27.80
2018-09-21T08:19:07.823Z,27.90
2018-09-21T08:21:37.108Z,27.90
2018-09-21T08:24:06.462Z,28.00
2018-09-21T08:26:36.323Z,28.00
2018-09-21T08:29:05.813Z,28.00
2018-09-21T08:31:35.090Z,28.00
2018-09-21T08:34:04.508Z,28.00
2018-09-21T08:36:33.857Z,28.00
2018-09-21T08:39:03.289Z,28.10
2018-09-21T08:41:32.560Z,28.10
2018-09-21T08:44:01.825Z,28.20
2018-09-21T08:46:31.127Z,28.30
2018-09-21T08:49:00.446Z,28.40
2018-09-21T08:51:29.754Z,28.40
2018-09-21T08:53:59.092Z,28.50
2018-09-21T08:56:28.716Z,28.60
2018-09-21T08:58:58.316Z,28.60
2018-09-21T09:01:27.674Z,28.60
2018-09-21T09:03:56.980Z,28.70
2018-09-21T09:06:26.252Z,28.80
2018-09-21T09:08:55.601Z,28.80
2018-09-21T09:11:24.889Z,28.90
2018-09-21T09:13:54.357Z,28.80
2018-09-21T09:16:23.661Z,28.90
2018-09-21T09:18:53.083Z,28.90
2018-09-21T09:21:23.283Z,28.80
2018-09-21T09:23:52.764Z,28.80
2018-09-21T09:26:23.134Z,28.80
2018-09-21T09:28:52.512Z,28.80
2018-09-21T09:31:22.502Z,28.80
2018-09-21T09:33:51.908Z,28.90
2018-09-21T09:36:21.337Z,28.90
2018-09-21T09:38:50.729Z,29.00
2018-09-21T09:41:20.250Z,29.00
2018-09-21T09:43:49.702Z,29.00
2018-09-21T09:46:19.115Z,29.10
2018-09-21T09:48:48.448Z,29.20
2018-09-21T09:51:17.904Z,29.10
2018-09-21T09:53:47.182Z,29.10
2018-09-21T09:56:16.426Z,29.10
2018-09-21T09:58:45.800Z,29.10
2018-09-21T10:01:15.112Z,29.10
2018-09-21T10:03:44.476Z,29.20
2018-09-21T10:06:13.789Z,29.20
2018-09-21T10:08:43.052Z,29.20
2018-09-21T10:11:12.476Z,29.30
2018-09-21T10:13:41.773Z,29.30
2018-09-21T10:16:11.018Z,29.30
2018-09-21T10:18:40.337Z,29.30
2018-09-21T10:21:09.691Z,29.30
2018-09-21T10:23:38.959Z,29.30
2018-09-21T10:26:08.373Z,29.30
2018-09-21T10:28:37.757Z,29.30
2018-09-21T10:31:07.120Z,29.20
2018-09-21T10:33:36.598Z,29.20
2018-09-21T10:36:05.820Z,29.10
2018-09-21T10:38:35.206Z,29.10
2018-09-21T10:41:04.608Z,29.10
2018-09-21T10:43:34.003Z,29.10
2018-09-21T10:46:03.336Z,29.10
2018-09-21T10:48:32.793Z,29.10
2018-09-21T10:51:02.257Z,29.10
2018-09-21T10:53:31.524Z,29.10
2018-09-21T10:56:00.812Z,29.20
2018-09-21T10:58:30.178Z,29.10
2018-09-21T11:00:59.584Z,29.10
2018-09-21T11:03:28.931Z,29.00
2018-09-21T11:05:58.426Z,29.00
2018-09-21T11:08:28.452Z,29.10
2018-09-21T11:10:57.913Z,29.00
2018-09-21T11:13:27.837Z,29.10
2018-09-21T11:15:58.182Z,29.20
2018-09-21T11:18:28.081Z,29.20
2018-09-21T11:20:57.688Z,29.20
2018-09-21T11:23:27.141Z,29.30
2018-09-21T11:25:56.406Z,29.30
2018-09-21T11:28:25.693Z,29.30
2018-09-21T11:30:55.148Z,29.30
2018-09-21T11:33:24.484Z,29.30
2018-09-21T11:35:53.853Z,29.30
2018-09-21T11:38:23.212Z,29.30
2018-09-21T11:40:52.599Z,29.30
2018-09-21T11:43:21.946Z,29.20
2018-09-21T11:45:51.470Z,29.20
2018-09-21T11:48:20.772Z,29.20
2018-09-21T11:50:50.194Z,29.20
2018-09-21T11:53:19.502Z,29.20
2018-09-21T11:55:48.809Z,29.20
2018-09-21T11:58:18.113Z,29.20
2018-09-21T12:00:47.471Z,29.20
2018-09-21T12:03:16.751Z,29.20
2018-09-21T12:05:46.053Z,29.10
2018-09-21T12:08:15.284Z,29.00
2018-09-21T12:10:44.565Z,29.00
2018-09-21T12:13:13.888Z,29.00
2018-09-21T12:15:43.135Z,29.10
2018-09-21T12:18:12.544Z,29.00
2018-09-21T12:20:41.940Z,29.00
2018-09-21T12:23:11.336Z,29.00
2018-09-21T12:25:40.627Z,29.00
2018-09-21T12:28:09.997Z,29.00
2018-09-21T12:30:39.336Z,29.00
2018-09-21T12:33:08.758Z,29.00
2018-09-21T12:35:38.031Z,28.90
2018-09-21T12:38:07.821Z,28.90
2018-09-21T12:40:37.168Z,28.90
2018-09-21T12:43:06.638Z,28.90
2018-09-21T12:45:35.981Z,28.90
2018-09-21T12:48:05.660Z,28.90
2018-09-21T12:50:35.079Z,28.90
2018-09-21T12:53:04.456Z,28.90
2018-09-21T12:55:34.116Z,28.90
2018-09-21T12:58:04.257Z,28.80
2018-09-21T13:00:39.458Z,28.90
2018-09-21T13:03:09.059Z,28.90
2018-09-21T13:05:44.847Z,28.90
2018-09-21T13:08:14.326Z,28.90
2018-09-21T13:10:43.625Z,28.90
2018-09-21T13:13:12.917Z,28.90
2018-09-21T13:15:42.260Z,29.00
2018-09-21T13:18:12.345Z,29.00
2018-09-21T13:20:41.749Z,29.00
2018-09-21T13:23:11.158Z,29.10
2018-09-21T13:25:40.635Z,29.10
2018-09-21T13:28:10.009Z,29.10
2018-09-21T13:30:39.328Z,29.10
2018-09-21T13:33:09.036Z,29.10
2018-09-21T13:35:38.504Z,29.00
2018-09-21T13:38:07.849Z,29.00
2018-09-21T13:40:37.244Z,29.00
2018-09-21T13:43:06.805Z,29.00
2018-09-21T13:45:36.228Z,28.90
2018-09-21T13:48:05.662Z,28.90
2018-09-21T13:50:35.074Z,28.90
2018-09-21T13:53:04.540Z,28.90
2018-09-21T13:55:33.945Z,28.80
2018-09-21T13:58:03.240Z,28.90
2018-09-21T14:00:32.660Z,28.90
2018-09-21T14:03:02.180Z,28.80
2018-09-21T14:05:31.558Z,28.80
2018-09-21T14:08:00.844Z,28.80
2018-09-21T14:10:30.161Z,28.90
2018-09-21T14:12:59.643Z,28.80
2018-09-21T14:15:28.963Z,28.80
2018-09-21T14:17:58.452Z,28.80
2018-09-21T14:20:27.761Z,28.80
2018-09-21T14:22:57.049Z,28.80
2018-09-21T14:25:26.400Z,28.80
2018-09-21T14:27:55.817Z,28.80
2018-09-21T14:30:25.148Z,28.80
2018-09-21T14:32:54.492Z,28.70
2018-09-21T14:35:23.876Z,28.70
2018-09-21T14:37:53.195Z,28.70
2018-09-21T14:40:22.600Z,28.70
2018-09-21T14:42:51.933Z,28.60
2018-09-21T14:45:21.240Z,28.60
2018-09-21T14:47:50.636Z,28.50
2018-09-21T14:50:19.865Z,28.50
2018-09-21T14:52:49.269Z,28.50
2018-09-21T14:55:18.653Z,28.50
2018-09-21T14:57:47.994Z,28.40
2018-09-21T15:00:17.355Z,28.40
2018-09-21T15:02:46.619Z,28.30
2018-09-21T15:05:15.883Z,28.30
2018-09-21T15:07:45.134Z,28.30
2018-09-21T15:10:14.474Z,28.30
2018-09-21T15:12:43.846Z,28.30
2018-09-21T15:15:13.164Z,28.30
2018-09-21T15:17:42.468Z,28.30
2018-09-21T15:20:11.727Z,28.40
2018-09-21T15:22:41.955Z,28.30
2018-09-21T15:25:11.458Z,28.30
2018-09-21T15:27:40.763Z,28.40
2018-09-21T15:30:10.277Z,28.30
2018-09-21T15:32:39.648Z,28.20
2018-09-21T15:35:10.442Z,28.20
2018-09-21T15:37:40.028Z,28.20
2018-09-21T15:40:10.105Z,28.20
2018-09-21T15:42:40.255Z,28.30
2018-09-21T15:45:09.835Z,28.30
2018-09-21T15:47:39.260Z,28.30
2018-09-21T15:50:08.563Z,28.20
2018-09-21T15:52:38.025Z,28.20
2018-09-21T15:55:07.380Z,28.20
2018-09-21T15:57:36.739Z,28.20
2018-09-21T16:00:07.271Z,28.20
2018-09-21T16:02:36.768Z,28.20
2018-09-21T16:05:13.664Z,28.20
2018-09-21T16:07:43.827Z,28.20
2018-09-21T16:10:14.192Z,28.10
2018-09-21T16:12:44.312Z,28.20
2018-09-21T16:15:16.030Z,28.10
2018-09-21T16:17:45.337Z,28.10
2018-09-21T16:20:14.758Z,28.10
2018-09-21T16:22:44.133Z,28.10
2018-09-21T16:25:14.309Z,28.00
2018-09-21T16:27:44.669Z,28.00
2018-09-21T16:30:14.711Z,28.00
2018-09-21T16:32:44.324Z,28.00
2018-09-21T16:35:14.673Z,28.00
2018-09-21T16:37:45.401Z,28.00
2018-09-21T16:40:14.908Z,28.00
2018-09-21T16:42:45.136Z,28.00
2018-09-21T16:45:15.220Z,28.00
2018-09-21T16:47:46.864Z,28.00
2018-09-21T16:50:16.292Z,28.00
2018-09-21T16:52:46.797Z,28.00
2018-09-21T16:55:16.065Z,28.00
2018-09-21T16:57:45.567Z,28.00
2018-09-21T17:00:15.503Z,27.90
2018-09-21T17:02:44.918Z,27.90
2018-09-21T17:05:14.413Z,27.90
2018-09-21T17:07:43.949Z,27.90
2018-09-21T17:10:13.840Z,27.80
2018-09-21T17:12:43.186Z,27.90
2018-09-21T17:15:12.653Z,27.90
2018-09-21T17:17:42.127Z,27.80
2018-09-21T17:20:11.559Z,27.90
2018-09-21T17:22:40.940Z,27.90
2018-09-21T17:25:10.589Z,27.80
2018-09-21T17:27:39.925Z,27.80
2018-09-21T17:30:09.900Z,27.90
2018-09-21T17:32:39.182Z,27.90
2018-09-21T17:35:08.548Z,27.80
2018-09-21T17:37:38.080Z,27.90
2018-09-21T17:40:07.574Z,27.90
2018-09-21T17:42:37.116Z,27.80
2018-09-21T17:45:06.622Z,27.80
2018-09-21T17:47:35.939Z,27.80
2018-09-21T17:50:05.494Z,27.80
2018-09-21T17:52:34.896Z,27.80
2018-09-21T17:55:04.700Z,27.80
2018-09-21T17:57:33.999Z,27.80
2018-09-21T18:00:03.469Z,27.80
2018-09-21T18:02:32.786Z,27.80
2018-09-21T18:05:02.204Z,27.80
2018-09-21T18:07:31.768Z,27.80
2018-09-21T18:10:01.296Z,27.80
2018-09-21T18:12:30.586Z,27.80
2018-09-21T18:14:59.933Z,27.70
2018-09-21T18:17:29.217Z,27.70
2018-09-21T18:19:58.641Z,27.70
2018-09-21T18:22:27.984Z,27.70
2018-09-21T18:24:57.333Z,27.70
2018-09-21T18:27:26.597Z,27.70
2018-09-21T18:29:55.837Z,27.70
2018-09-21T18:32:25.198Z,27.70
2018-09-21T18:34:54.596Z,27.70
2018-09-21T18:37:23.971Z,27.70
2018-09-21T18:39:53.337Z,27.70
2018-09-21T18:42:22.633Z,27.70
2018-09-21T18:44:51.967Z,27.70
2018-09-21T18:47:21.569Z,27.70
2018-09-21T18:49:50.910Z,27.70
2018-09-21T18:52:20.157Z,27.70
2018-09-21T18:54:49.592Z,27.70
2018-09-21T18:57:18.850Z,27.70
2018-09-21T18:59:48.580Z,27.70
2018-09-21T19:02:18.045Z,27.70
2018-09-21T19:04:48.621Z,27.70
2018-09-21T19:07:23.356Z,27.70
2018-09-21T19:09:52.743Z,27.70
2018-09-21T19:12:22.283Z,27.70
2018-09-21T19:14:51.609Z,27.70
2018-09-21T19:17:21.912Z,27.70
2018-09-21T19:19:58.048Z,27.70
2018-09-21T19:22:27.773Z,27.70
2018-09-21T19:24:57.268Z,27.70
2018-09-21T19:27:27.115Z,27.70
2018-09-21T19:29:56.945Z,27.70
2018-09-21T19:32:26.541Z,27.70
2018-09-21T19:34:58.213Z,27.80
2018-09-21T19:37:27.461Z,27.80
2018-09-21T19:39:56.914Z,27.80
2018-09-21T19:42:26.513Z,27.80
2018-09-21T19:44:59.615Z,27.80
2018-09-21T19:47:29.160Z,27.80
2018-09-21T19:49:58.621Z,27.70
2018-09-21T19:52:28.000Z,27.80
2018-09-21T19:54:57.534Z,27.80
2018-09-21T19:57:26.781Z,27.80
2018-09-21T19:59:56.084Z,27.80
2018-09-21T20:02:25.344Z,27.80
2018-09-21T20:04:54.669Z,27.80
2018-09-21T20:07:24.049Z,27.80
2018-09-21T20:09:53.502Z,27.80
2018-09-21T20:12:23.039Z,27.80
2018-09-21T20:14:52.549Z,27.80
2018-09-21T20:17:21.904Z,27.80
2018-09-21T20:19:51.274Z,27.80
2018-09-21T20:22:20.699Z,27.80
2018-09-21T20:27:27.013Z,27.80
2018-09-21T20:30:02.299Z,27.80
2018-09-21T20:32:37.053Z,27.80
2018-09-21T20:35:06.456Z,27.80
2018-09-21T20:37:35.922Z,27.80
2018-09-21T20:40:05.279Z,27.80
2018-09-21T20:42:42.966Z,27.80
2018-09-21T20:45:12.558Z,27.80
2018-09-21T20:47:41.898Z,27.80
2018-09-21T20:50:11.312Z,27.70
2018-09-21T20:52:40.743Z,27.70
2018-09-21T20:55:10.150Z,27.70
2018-09-21T20:57:40.493Z,27.70
2018-09-21T21:00:10.166Z,27.80
2018-09-21T21:02:39.556Z,27.70
2018-09-21T21:05:09.129Z,27.80
2018-09-21T21:07:38.484Z,27.70
2018-09-21T21:10:08.041Z,27.70
2018-09-21T21:12:37.482Z,27.70
2018-09-21T21:15:06.954Z,27.70
2018-09-21T21:17:36.350Z,27.70
2018-09-21T21:20:05.840Z,27.70
2018-09-21T21:22:35.359Z,27.70
2018-09-21T21:25:04.772Z,27.70
2018-09-21T21:27:34.108Z,27.70
2018-09-21T21:30:03.631Z,27.70
2018-09-21T21:32:32.948Z,27.70
2018-09-21T21:35:02.368Z,27.60
2018-09-21T21:37:31.838Z,27.60
2018-09-21T21:40:01.388Z,27.60
2018-09-21T21:42:30.657Z,27.60
2018-09-21T21:45:00.402Z,27.50
2018-09-21T21:47:29.672Z,27.50
2018-09-21T21:49:59.209Z,27.60
2018-09-21T21:52:28.566Z,27.50
2018-09-21T21:54:57.880Z,27.60
2018-09-21T21:57:27.198Z,27.50
2018-09-21T21:59:56.581Z,27.60
2018-09-21T22:02:25.960Z,27.50
2018-09-21T22:04:55.369Z,27.50
2018-09-21T22:07:25.048Z,27.60
2018-09-21T22:09:54.297Z,27.60
2018-09-21T22:12:28.698Z,27.60
2018-09-21T22:14:58.011Z,27.60
2018-09-21T22:17:27.600Z,27.60
2018-09-21T22:19:56.955Z,27.60
2018-09-21T22:22:26.249Z,27.60
2018-09-21T22:24:55.508Z,27.60
2018-09-21T22:27:24.805Z,27.60
2018-09-21T22:29:54.106Z,27.50
2018-09-21T22:32:23.445Z,27.50
2018-09-21T22:34:52.717Z,27.50
2018-09-21T22:37:22.005Z,27.50
2018-09-21T22:39:51.417Z,27.50
2018-09-21T22:42:20.697Z,27.50
2018-09-21T22:44:50.041Z,27.50
2018-09-21T22:47:19.551Z,27.50
2018-09-21T22:49:48.868Z,27.50
2018-09-21T22:52:18.287Z,27.50
2018-09-21T22:54:47.624Z,27.50
2018-09-21T22:57:16.908Z,27.50
2018-09-21T22:59:46.411Z,27.50
2018-09-21T23:02:15.701Z,27.50
2018-09-21T23:04:44.944Z,27.40
2018-09-21T23:07:14.218Z,27.50
2018-09-21T23:09:43.581Z,27.50
2018-09-21T23:12:12.845Z,27.40
2018-09-21T23:14:42.164Z,27.40
2018-09-21T23:17:11.462Z,27.40
2018-09-21T23:19:40.814Z,27.40
2018-09-21T23:22:10.157Z,27.40
2018-09-21T23:24:39.423Z,27.40
2018-09-21T23:27:08.853Z,27.40
2018-09-21T23:29:38.279Z,27.40
2018-09-21T23:32:07.588Z,27.40
2018-09-21T23:34:37.020Z,27.40
2018-09-21T23:37:06.303Z,27.40
2018-09-21T23:39:35.604Z,27.40
2018-09-21T23:42:04.924Z,27.40
2018-09-21T23:44:34.200Z,27.40
2018-09-21T23:47:03.551Z,27.40
2018-09-21T23:49:32.952Z,27.40
2018-09-21T23:52:02.321Z,27.40
2018-09-21T23:54:31.678Z,27.40
2018-09-21T23:57:01.037Z,27.30
2018-09-21T23:59:30.288Z,27.40
